sensor_id;sensor_type;location;lat;lon;timestamp;P1;durP1;ratioP1;P2;durP2;ratioP2
39860;SDS011;25529;49.346;20.886;2023-03-01T00:01:37;63.40;;;30.42;;
39860;SDS011;25529;49.346;20.886;2023-03-01T00:04:03;71.45;;;31.60;;
39860;SDS011;25529;49.346;20.886;2023-03-01T00:06:28;66.15;;;29.83;;
39860;SDS011;25529;49.346;20.886;2023-03-01T00:08:54;65.60;;;28.33;;
39860;SDS011;25529;49.346;20.886;2023-03-01T00:11:23;65.53;;;30.80;;
39860;SDS011;25529;49.346;20.886;2023-03-01T00:13:50;70.80;;;30.42;;
39860;SDS011;25529;49.346;20.886;2023-03-01T00:16:17;68.40;;;32.30;;
39860;SDS011;25529;49.346;20.886;2023-03-01T00:18:43;67.10;;;31.60;;
39860;SDS011;25529;49.346;20.886;2023-03-01T00:21:08;68.25;;;30.63;;
39860;SDS011;25529;49.346;20.886;2023-03-01T00:23:34;71.72;;;32.85;;
39860;SDS011;25529;49.346;20.886;2023-03-01T00:25:59;81.93;;;35.13;;
39860;SDS011;25529;49.346;20.886;2023-03-01T00:28:25;77.40;;;34.88;;
39860;SDS011;25529;49.346;20.886;2023-03-01T00:30:50;80.38;;;34.03;;
39860;SDS011;25529;49.346;20.886;2023-03-01T00:33:15;75.00;;;33.80;;
39860;SDS011;25529;49.346;20.886;2023-03-01T00:35:40;80.32;;;33.90;;
39860;SDS011;25529;49.346;20.886;2023-03-01T00:38:06;80.65;;;33.08;;
39860;SDS011;25529;49.346;20.886;2023-03-01T00:40:32;72.90;;;33.33;;
39860;SDS011;25529;49.346;20.886;2023-03-01T00:42:57;74.20;;;32.42;;
39860;SDS011;25529;49.346;20.886;2023-03-01T00:45:23;73.90;;;32.58;;
39860;SDS011;25529;49.346;20.886;2023-03-01T00:47:49;72.37;;;31.73;;
39860;SDS011;25529;49.346;20.886;2023-03-01T00:50:14;71.47;;;30.92;;
39860;SDS011;25529;49.346;20.886;2023-03-01T00:52:40;70.03;;;31.58;;
39860;SDS011;25529;49.346;20.886;2023-03-01T00:55:07;67.88;;;31.13;;
39860;SDS011;25529;49.346;20.886;2023-03-01T00:57:32;70.90;;;31.95;;
39860;SDS011;25529;49.346;20.886;2023-03-01T00:59:58;67.10;;;31.00;;
39860;SDS011;25529;49.346;20.886;2023-03-01T01:02:23;70.30;;;30.77;;
39860;SDS011;25529;49.346;20.886;2023-03-01T01:04:50;69.43;;;33.53;;
39860;SDS011;25529;49.346;20.886;2023-03-01T01:07:15;74.10;;;34.80;;
39860;SDS011;25529;49.346;20.886;2023-03-01T01:09:40;86.18;;;38.80;;
39860;SDS011;25529;49.346;20.886;2023-03-01T01:12:06;81.43;;;36.17;;
39860;SDS011;25529;49.346;20.886;2023-03-01T01:14:32;80.55;;;36.65;;
39860;SDS011;25529;49.346;20.886;2023-03-01T01:16:57;76.40;;;33.27;;
39860;SDS011;25529;49.346;20.886;2023-03-01T01:19:23;74.20;;;34.60;;
39860;SDS011;25529;49.346;20.886;2023-03-01T01:21:48;70.55;;;34.33;;
39860;SDS011;25529;49.346;20.886;2023-03-01T01:24:14;70.18;;;32.92;;
39860;SDS011;25529;49.346;20.886;2023-03-01T01:26:40;70.78;;;33.58;;
39860;SDS011;25529;49.346;20.886;2023-03-01T01:29:06;66.97;;;31.27;;
39860;SDS011;25529;49.346;20.886;2023-03-01T01:31:32;69.90;;;32.85;;
39860;SDS011;25529;49.346;20.886;2023-03-01T01:33:58;66.88;;;31.20;;
39860;SDS011;25529;49.346;20.886;2023-03-01T01:36:24;68.95;;;32.95;;
39860;SDS011;25529;49.346;20.886;2023-03-01T01:38:49;69.80;;;31.90;;
39860;SDS011;25529;49.346;20.886;2023-03-01T01:41:15;68.53;;;31.17;;
39860;SDS011;25529;49.346;20.886;2023-03-01T01:43:41;67.10;;;29.50;;
39860;SDS011;25529;49.346;20.886;2023-03-01T01:48:43;69.00;;;31.67;;
39860;SDS011;25529;49.346;20.886;2023-03-01T01:51:10;66.80;;;30.77;;
39860;SDS011;25529;49.346;20.886;2023-03-01T01:53:37;66.40;;;29.38;;
39860;SDS011;25529;49.346;20.886;2023-03-01T01:56:03;66.77;;;29.97;;
39860;SDS011;25529;49.346;20.886;2023-03-01T01:58:30;62.83;;;29.77;;
39860;SDS011;25529;49.346;20.886;2023-03-01T02:00:55;63.70;;;28.95;;
39860;SDS011;25529;49.346;20.886;2023-03-01T02:03:28;67.90;;;31.33;;
39860;SDS011;25529;49.346;20.886;2023-03-01T02:08:26;61.55;;;28.83;;
39860;SDS011;25529;49.346;20.886;2023-03-01T02:10:53;63.53;;;28.45;;
39860;SDS011;25529;49.346;20.886;2023-03-01T02:13:19;63.30;;;29.05;;
39860;SDS011;25529;49.346;20.886;2023-03-01T02:15:45;60.20;;;27.23;;
39860;SDS011;25529;49.346;20.886;2023-03-01T02:18:12;62.23;;;29.00;;
39860;SDS011;25529;49.346;20.886;2023-03-01T02:23:23;63.40;;;27.70;;
39860;SDS011;25529;49.346;20.886;2023-03-01T02:30:40;60.08;;;27.67;;
39860;SDS011;25529;49.346;20.886;2023-03-01T02:33:26;62.80;;;27.93;;
39860;SDS011;25529;49.346;20.886;2023-03-01T02:35:51;61.87;;;28.97;;
39860;SDS011;25529;49.346;20.886;2023-03-01T02:38:17;62.83;;;28.17;;
39860;SDS011;25529;49.346;20.886;2023-03-01T02:40:43;58.50;;;28.07;;
39860;SDS011;25529;49.346;20.886;2023-03-01T02:43:09;60.87;;;28.00;;
39860;SDS011;25529;49.346;20.886;2023-03-01T02:45:35;68.27;;;29.27;;
39860;SDS011;25529;49.346;20.886;2023-03-01T02:48:02;63.07;;;27.97;;
39860;SDS011;25529;49.346;20.886;2023-03-01T02:52:55;65.63;;;28.33;;
39860;SDS011;25529;49.346;20.886;2023-03-01T02:55:23;63.07;;;27.53;;
39860;SDS011;25529;49.346;20.886;2023-03-01T02:57:49;63.37;;;29.17;;
39860;SDS011;25529;49.346;20.886;2023-03-01T03:00:18;57.83;;;26.47;;
39860;SDS011;25529;49.346;20.886;2023-03-01T03:02:45;59.00;;;26.57;;
39860;SDS011;25529;49.346;20.886;2023-03-01T03:05:12;58.17;;;26.57;;
39860;SDS011;25529;49.346;20.886;2023-03-01T03:07:39;55.87;;;26.17;;
39860;SDS011;25529;49.346;20.886;2023-03-01T03:10:06;59.97;;;25.80;;
39860;SDS011;25529;49.346;20.886;2023-03-01T03:12:31;60.33;;;26.83;;
39860;SDS011;25529;49.346;20.886;2023-03-01T03:14:56;57.37;;;25.47;;
39860;SDS011;25529;49.346;20.886;2023-03-01T03:17:22;57.50;;;24.98;;
39860;SDS011;25529;49.346;20.886;2023-03-01T03:19:47;53.42;;;22.67;;
39860;SDS011;25529;49.346;20.886;2023-03-01T03:22:13;50.43;;;23.00;;
39860;SDS011;25529;49.346;20.886;2023-03-01T03:24:38;47.70;;;21.77;;
39860;SDS011;25529;49.346;20.886;2023-03-01T03:27:04;47.13;;;21.00;;
39860;SDS011;25529;49.346;20.886;2023-03-01T03:29:30;49.07;;;21.70;;
39860;SDS011;25529;49.346;20.886;2023-03-01T03:31:56;45.63;;;20.63;;
39860;SDS011;25529;49.346;20.886;2023-03-01T03:34:22;44.53;;;19.30;;
39860;SDS011;25529;49.346;20.886;2023-03-01T03:36:47;45.30;;;20.30;;
39860;SDS011;25529;49.346;20.886;2023-03-01T03:39:12;39.23;;;18.00;;
39860;SDS011;25529;49.346;20.886;2023-03-01T03:41:37;46.27;;;20.27;;
39860;SDS011;25529;49.346;20.886;2023-03-01T03:44:03;44.90;;;19.07;;
39860;SDS011;25529;49.346;20.886;2023-03-01T03:46:28;49.80;;;20.10;;
39860;SDS011;25529;49.346;20.886;2023-03-01T03:48:53;46.23;;;19.73;;
39860;SDS011;25529;49.346;20.886;2023-03-01T03:51:19;46.67;;;20.53;;
39860;SDS011;25529;49.346;20.886;2023-03-01T03:53:44;41.93;;;19.23;;
39860;SDS011;25529;49.346;20.886;2023-03-01T03:56:10;45.60;;;19.53;;
39860;SDS011;25529;49.346;20.886;2023-03-01T03:58:36;41.55;;;17.63;;
39860;SDS011;25529;49.346;20.886;2023-03-01T04:01:02;43.20;;;18.10;;
39860;SDS011;25529;49.346;20.886;2023-03-01T04:03:28;40.40;;;16.83;;
39860;SDS011;25529;49.346;20.886;2023-03-01T04:05:53;40.80;;;18.27;;
39860;SDS011;25529;49.346;20.886;2023-03-01T04:08:20;41.47;;;17.88;;
39860;SDS011;25529;49.346;20.886;2023-03-01T04:10:47;42.87;;;17.80;;
39860;SDS011;25529;49.346;20.886;2023-03-01T04:13:13;39.73;;;18.10;;
39860;SDS011;25529;49.346;20.886;2023-03-01T04:15:39;43.50;;;19.57;;
39860;SDS011;25529;49.346;20.886;2023-03-01T04:18:05;42.10;;;18.53;;
39860;SDS011;25529;49.346;20.886;2023-03-01T04:20:31;45.00;;;19.87;;
39860;SDS011;25529;49.346;20.886;2023-03-01T04:23:06;40.90;;;18.57;;
39860;SDS011;25529;49.346;20.886;2023-03-01T04:25:55;40.63;;;18.80;;
39860;SDS011;25529;49.346;20.886;2023-03-01T04:28:28;39.40;;;18.53;;
39860;SDS011;25529;49.346;20.886;2023-03-01T04:30:54;38.90;;;17.35;;
39860;SDS011;25529;49.346;20.886;2023-03-01T04:33:19;42.67;;;17.47;;
39860;SDS011;25529;49.346;20.886;2023-03-01T04:35:45;43.87;;;17.80;;
39860;SDS011;25529;49.346;20.886;2023-03-01T04:38:10;39.60;;;16.77;;
39860;SDS011;25529;49.346;20.886;2023-03-01T04:40:36;38.87;;;17.67;;
39860;SDS011;25529;49.346;20.886;2023-03-01T04:43:02;41.30;;;16.87;;
39860;SDS011;25529;49.346;20.886;2023-03-01T04:45:27;38.57;;;16.43;;
39860;SDS011;25529;49.346;20.886;2023-03-01T04:47:53;38.20;;;16.83;;
39860;SDS011;25529;49.346;20.886;2023-03-01T04:50:19;41.72;;;17.73;;
39860;SDS011;25529;49.346;20.886;2023-03-01T04:52:48;37.87;;;16.07;;
39860;SDS011;25529;49.346;20.886;2023-03-01T04:55:14;39.22;;;16.65;;
39860;SDS011;25529;49.346;20.886;2023-03-01T04:57:40;41.20;;;18.40;;
39860;SDS011;25529;49.346;20.886;2023-03-01T05:00:06;39.37;;;18.43;;
39860;SDS011;25529;49.346;20.886;2023-03-01T05:02:54;42.23;;;17.53;;
39860;SDS011;25529;49.346;20.886;2023-03-01T05:07:54;43.03;;;18.17;;
39860;SDS011;25529;49.346;20.886;2023-03-01T05:10:20;38.70;;;17.47;;
39860;SDS011;25529;49.346;20.886;2023-03-01T05:12:45;44.20;;;18.23;;
39860;SDS011;25529;49.346;20.886;2023-03-01T05:15:11;40.57;;;18.67;;
39860;SDS011;25529;49.346;20.886;2023-03-01T05:17:37;42.20;;;19.33;;
39860;SDS011;25529;49.346;20.886;2023-03-01T05:20:02;41.87;;;19.13;;
39860;SDS011;25529;49.346;20.886;2023-03-01T05:22:32;42.17;;;19.53;;
39860;SDS011;25529;49.346;20.886;2023-03-01T05:24:57;41.97;;;19.10;;
39860;SDS011;25529;49.346;20.886;2023-03-01T05:27:22;43.30;;;19.30;;
39860;SDS011;25529;49.346;20.886;2023-03-01T05:29:48;43.00;;;20.60;;
39860;SDS011;25529;49.346;20.886;2023-03-01T05:32:13;44.27;;;20.53;;
39860;SDS011;25529;49.346;20.886;2023-03-01T05:34:40;45.60;;;20.17;;
39860;SDS011;25529;49.346;20.886;2023-03-01T05:37:06;43.73;;;20.13;;
39860;SDS011;25529;49.346;20.886;2023-03-01T05:39:32;42.70;;;20.07;;
39860;SDS011;25529;49.346;20.886;2023-03-01T05:41:58;42.90;;;19.23;;
39860;SDS011;25529;49.346;20.886;2023-03-01T05:44:26;46.57;;;20.60;;
39860;SDS011;25529;49.346;20.886;2023-03-01T05:46:51;48.37;;;20.33;;
39860;SDS011;25529;49.346;20.886;2023-03-01T05:49:17;45.07;;;20.40;;
39860;SDS011;25529;49.346;20.886;2023-03-01T05:51:43;46.20;;;18.70;;
39860;SDS011;25529;49.346;20.886;2023-03-01T05:54:12;44.90;;;19.83;;
39860;SDS011;25529;49.346;20.886;2023-03-01T05:56:37;43.97;;;19.70;;
39860;SDS011;25529;49.346;20.886;2023-03-01T05:59:02;43.77;;;20.47;;
39860;SDS011;25529;49.346;20.886;2023-03-01T06:01:28;46.50;;;20.70;;
39860;SDS011;25529;49.346;20.886;2023-03-01T06:03:54;46.93;;;21.03;;
39860;SDS011;25529;49.346;20.886;2023-03-01T06:06:20;45.43;;;21.67;;
39860;SDS011;25529;49.346;20.886;2023-03-01T06:08:46;51.60;;;23.67;;
39860;SDS011;25529;49.346;20.886;2023-03-01T06:11:11;48.57;;;21.53;;
39860;SDS011;25529;49.346;20.886;2023-03-01T06:13:37;51.10;;;22.33;;
39860;SDS011;25529;49.346;20.886;2023-03-01T06:16:07;49.70;;;21.67;;
39860;SDS011;25529;49.346;20.886;2023-03-01T06:18:32;50.40;;;22.80;;
39860;SDS011;25529;49.346;20.886;2023-03-01T06:20:58;55.20;;;25.93;;
39860;SDS011;25529;49.346;20.886;2023-03-01T06:23:23;55.90;;;25.70;;
39860;SDS011;25529;49.346;20.886;2023-03-01T06:25:49;49.97;;;23.10;;
39860;SDS011;25529;49.346;20.886;2023-03-01T06:28:14;48.70;;;22.33;;
39860;SDS011;25529;49.346;20.886;2023-03-01T06:30:39;46.30;;;20.90;;
39860;SDS011;25529;49.346;20.886;2023-03-01T06:33:05;43.90;;;20.83;;
39860;SDS011;25529;49.346;20.886;2023-03-01T06:35:30;48.57;;;20.67;;
39860;SDS011;25529;49.346;20.886;2023-03-01T06:37:57;45.13;;;19.67;;
39860;SDS011;25529;49.346;20.886;2023-03-01T06:40:23;142.10;;;83.43;;
39860;SDS011;25529;49.346;20.886;2023-03-01T06:42:49;177.10;;;89.67;;
39860;SDS011;25529;49.346;20.886;2023-03-01T06:45:15;59.37;;;27.20;;
39860;SDS011;25529;49.346;20.886;2023-03-01T06:47:40;47.40;;;20.63;;
39860;SDS011;25529;49.346;20.886;2023-03-01T06:50:06;46.23;;;19.97;;
39860;SDS011;25529;49.346;20.886;2023-03-01T06:52:31;42.50;;;18.73;;
39860;SDS011;25529;49.346;20.886;2023-03-01T06:54:56;43.50;;;19.07;;
39860;SDS011;25529;49.346;20.886;2023-03-01T06:57:22;43.00;;;18.37;;
39860;SDS011;25529;49.346;20.886;2023-03-01T06:59:47;39.63;;;17.97;;
39860;SDS011;25529;49.346;20.886;2023-03-01T07:02:13;45.03;;;20.23;;
39860;SDS011;25529;49.346;20.886;2023-03-01T07:04:38;47.07;;;20.73;;
39860;SDS011;25529;49.346;20.886;2023-03-01T07:07:04;44.40;;;20.30;;
39860;SDS011;25529;49.346;20.886;2023-03-01T07:09:30;47.60;;;21.80;;
39860;SDS011;25529;49.346;20.886;2023-03-01T07:11:55;49.47;;;21.87;;
39860;SDS011;25529;49.346;20.886;2023-03-01T07:14:21;48.67;;;21.07;;
39860;SDS011;25529;49.346;20.886;2023-03-01T07:16:46;45.80;;;20.40;;
39860;SDS011;25529;49.346;20.886;2023-03-01T07:19:12;43.20;;;19.57;;
39860;SDS011;25529;49.346;20.886;2023-03-01T07:21:37;45.87;;;20.17;;
39860;SDS011;25529;49.346;20.886;2023-03-01T07:24:05;44.10;;;20.33;;
39860;SDS011;25529;49.346;20.886;2023-03-01T07:26:30;47.53;;;21.93;;
39860;SDS011;25529;49.346;20.886;2023-03-01T07:28:55;45.80;;;20.00;;
39860;SDS011;25529;49.346;20.886;2023-03-01T07:31:23;46.00;;;19.73;;
39860;SDS011;25529;49.346;20.886;2023-03-01T07:33:49;42.25;;;19.02;;
39860;SDS011;25529;49.346;20.886;2023-03-01T07:36:14;43.60;;;19.77;;
39860;SDS011;25529;49.346;20.886;2023-03-01T07:38:39;46.43;;;18.83;;
39860;SDS011;25529;49.346;20.886;2023-03-01T07:41:04;47.10;;;19.20;;
39860;SDS011;25529;49.346;20.886;2023-03-01T07:43:30;38.77;;;17.00;;
39860;SDS011;25529;49.346;20.886;2023-03-01T07:45:59;38.50;;;16.23;;
39860;SDS011;25529;49.346;20.886;2023-03-01T07:48:25;44.37;;;16.93;;
39860;SDS011;25529;49.346;20.886;2023-03-01T07:50:50;41.10;;;18.20;;
39860;SDS011;25529;49.346;20.886;2023-03-01T07:53:17;40.10;;;17.63;;
39860;SDS011;25529;49.346;20.886;2023-03-01T07:55:42;41.60;;;18.27;;
39860;SDS011;25529;49.346;20.886;2023-03-01T07:58:07;38.67;;;16.17;;
39860;SDS011;25529;49.346;20.886;2023-03-01T08:00:33;38.55;;;15.40;;
39860;SDS011;25529;49.346;20.886;2023-03-01T08:02:58;39.67;;;16.50;;
39860;SDS011;25529;49.346;20.886;2023-03-01T08:05:24;43.10;;;20.10;;
39860;SDS011;25529;49.346;20.886;2023-03-01T08:07:50;39.58;;;16.48;;
39860;SDS011;25529;49.346;20.886;2023-03-01T08:10:16;37.70;;;16.92;;
39860;SDS011;25529;49.346;20.886;2023-03-01T08:12:41;35.75;;;16.25;;
39860;SDS011;25529;49.346;20.886;2023-03-01T08:15:07;37.35;;;15.18;;
39860;SDS011;25529;49.346;20.886;2023-03-01T08:17:32;37.25;;;15.60;;
39860;SDS011;25529;49.346;20.886;2023-03-01T08:19:58;37.47;;;15.27;;
39860;SDS011;25529;49.346;20.886;2023-03-01T08:22:23;33.60;;;15.02;;
39860;SDS011;25529;49.346;20.886;2023-03-01T08:24:48;36.72;;;15.45;;
39860;SDS011;25529;49.346;20.886;2023-03-01T08:27:14;36.17;;;15.35;;
39860;SDS011;25529;49.346;20.886;2023-03-01T08:29:40;35.78;;;14.77;;
39860;SDS011;25529;49.346;20.886;2023-03-01T08:32:05;43.28;;;19.23;;
39860;SDS011;25529;49.346;20.886;2023-03-01T08:34:30;50.83;;;26.40;;
39860;SDS011;25529;49.346;20.886;2023-03-01T08:36:56;48.90;;;22.90;;
39860;SDS011;25529;49.346;20.886;2023-03-01T08:39:21;35.53;;;15.25;;
39860;SDS011;25529;49.346;20.886;2023-03-01T08:41:47;33.58;;;14.27;;
39860;SDS011;25529;49.346;20.886;2023-03-01T08:44:14;30.80;;;13.27;;
39860;SDS011;25529;49.346;20.886;2023-03-01T08:46:46;31.85;;;13.45;;
39860;SDS011;25529;49.346;20.886;2023-03-01T08:49:19;35.03;;;13.88;;
39860;SDS011;25529;49.346;20.886;2023-03-01T08:51:46;32.45;;;13.55;;
39860;SDS011;25529;49.346;20.886;2023-03-01T08:54:14;31.95;;;12.95;;
39860;SDS011;25529;49.346;20.886;2023-03-01T08:56:48;32.85;;;13.30;;
39860;SDS011;25529;49.346;20.886;2023-03-01T08:59:15;32.28;;;13.27;;
39860;SDS011;25529;49.346;20.886;2023-03-01T09:01:41;29.13;;;12.00;;
39860;SDS011;25529;49.346;20.886;2023-03-01T09:06:39;29.38;;;11.73;;
39860;SDS011;25529;49.346;20.886;2023-03-01T09:09:17;32.00;;;13.10;;
39860;SDS011;25529;49.346;20.886;2023-03-01T09:12:06;123.97;;;74.75;;
39860;SDS011;25529;49.346;20.886;2023-03-01T09:14:48;45.08;;;21.60;;
39860;SDS011;25529;49.346;20.886;2023-03-01T09:17:21;32.17;;;13.90;;
39860;SDS011;25529;49.346;20.886;2023-03-01T09:19:51;29.88;;;11.52;;
39860;SDS011;25529;49.346;20.886;2023-03-01T09:22:17;28.73;;;11.18;;
39860;SDS011;25529;49.346;20.886;2023-03-01T09:24:42;34.00;;;14.63;;
39860;SDS011;25529;49.346;20.886;2023-03-01T09:27:08;29.45;;;12.23;;
39860;SDS011;25529;49.346;20.886;2023-03-01T09:29:36;27.20;;;10.82;;
39860;SDS011;25529;49.346;20.886;2023-03-01T09:32:04;28.80;;;10.75;;
39860;SDS011;25529;49.346;20.886;2023-03-01T09:34:30;26.88;;;10.70;;
39860;SDS011;25529;49.346;20.886;2023-03-01T09:37:17;24.73;;;9.80;;
39860;SDS011;25529;49.346;20.886;2023-03-01T09:39:43;25.35;;;9.45;;
39860;SDS011;25529;49.346;20.886;2023-03-01T09:42:12;24.73;;;9.68;;
39860;SDS011;25529;49.346;20.886;2023-03-01T09:44:51;23.52;;;8.77;;
39860;SDS011;25529;49.346;20.886;2023-03-01T09:47:20;25.13;;;9.15;;
39860;SDS011;25529;49.346;20.886;2023-03-01T09:49:56;25.20;;;9.18;;
39860;SDS011;25529;49.346;20.886;2023-03-01T09:54:57;26.83;;;10.35;;
39860;SDS011;25529;49.346;20.886;2023-03-01T09:57:33;26.70;;;9.98;;
39860;SDS011;25529;49.346;20.886;2023-03-01T10:05:14;33.72;;;14.05;;
39860;SDS011;25529;49.346;20.886;2023-03-01T10:07:44;27.23;;;11.13;;
39860;SDS011;25529;49.346;20.886;2023-03-01T10:10:16;28.25;;;11.57;;
39860;SDS011;25529;49.346;20.886;2023-03-01T10:12:47;27.25;;;10.32;;
39860;SDS011;25529;49.346;20.886;2023-03-01T10:15:14;29.15;;;10.95;;
39860;SDS011;25529;49.346;20.886;2023-03-01T10:20:13;28.77;;;11.98;;
39860;SDS011;25529;49.346;20.886;2023-03-01T10:22:39;28.63;;;11.65;;
39860;SDS011;25529;49.346;20.886;2023-03-01T10:25:05;27.98;;;11.90;;
39860;SDS011;25529;49.346;20.886;2023-03-01T10:27:39;29.27;;;11.70;;
39860;SDS011;25529;49.346;20.886;2023-03-01T10:30:21;31.15;;;11.85;;
39860;SDS011;25529;49.346;20.886;2023-03-01T10:32:49;92.15;;;47.55;;
39860;SDS011;25529;49.346;20.886;2023-03-01T10:35:27;38.97;;;18.48;;
39860;SDS011;25529;49.346;20.886;2023-03-01T10:37:57;31.70;;;14.95;;
39860;SDS011;25529;49.346;20.886;2023-03-01T10:40:23;30.92;;;12.65;;
39860;SDS011;25529;49.346;20.886;2023-03-01T10:42:51;28.92;;;11.43;;
39860;SDS011;25529;49.346;20.886;2023-03-01T10:45:34;32.40;;;14.43;;
39860;SDS011;25529;49.346;20.886;2023-03-01T10:48:27;27.42;;;10.70;;
39860;SDS011;25529;49.346;20.886;2023-03-01T10:53:29;28.60;;;10.23;;
39860;SDS011;25529;49.346;20.886;2023-03-01T10:56:06;28.83;;;10.63;;
39860;SDS011;25529;49.346;20.886;2023-03-01T10:58:32;27.35;;;9.95;;
39860;SDS011;25529;49.346;20.886;2023-03-01T11:01:02;25.05;;;9.55;;
39860;SDS011;25529;49.346;20.886;2023-03-01T11:03:31;24.80;;;9.55;;
39860;SDS011;25529;49.346;20.886;2023-03-01T11:08:42;25.30;;;9.50;;
39860;SDS011;25529;49.346;20.886;2023-03-01T11:13:47;23.40;;;8.90;;
39860;SDS011;25529;49.346;20.886;2023-03-01T11:16:15;22.98;;;8.35;;
39860;SDS011;25529;49.346;20.886;2023-03-01T11:19:34;24.95;;;8.35;;
39860;SDS011;25529;49.346;20.886;2023-03-01T11:26:37;19.17;;;6.47;;
39860;SDS011;25529;49.346;20.886;2023-03-01T11:29:05;18.27;;;5.60;;
39860;SDS011;25529;49.346;20.886;2023-03-01T11:31:31;18.58;;;5.88;;
39860;SDS011;25529;49.346;20.886;2023-03-01T11:33:59;16.88;;;5.35;;
39860;SDS011;25529;49.346;20.886;2023-03-01T11:36:36;17.25;;;5.63;;
39860;SDS011;25529;49.346;20.886;2023-03-01T11:41:59;17.08;;;5.03;;
39860;SDS011;25529;49.346;20.886;2023-03-01T11:44:28;13.07;;;4.35;;
39860;SDS011;25529;49.346;20.886;2023-03-01T11:52:17;21.90;;;7.55;;
39860;SDS011;25529;49.346;20.886;2023-03-01T11:58:01;22.15;;;7.72;;
39860;SDS011;25529;49.346;20.886;2023-03-01T12:08:14;19.15;;;6.45;;
39860;SDS011;25529;49.346;20.886;2023-03-01T12:10:45;20.63;;;6.65;;
39860;SDS011;25529;49.346;20.886;2023-03-01T12:21:16;23.95;;;8.65;;
39860;SDS011;25529;49.346;20.886;2023-03-01T12:23:51;26.10;;;9.35;;
39860;SDS011;25529;49.346;20.886;2023-03-01T12:26:36;24.75;;;8.57;;
39860;SDS011;25529;49.346;20.886;2023-03-01T12:34:29;26.05;;;9.95;;
39860;SDS011;25529;49.346;20.886;2023-03-01T12:42:35;25.35;;;9.27;;
39860;SDS011;25529;49.346;20.886;2023-03-01T12:52:51;29.33;;;10.27;;
39860;SDS011;25529;49.346;20.886;2023-03-01T13:06:14;26.92;;;9.88;;
39860;SDS011;25529;49.346;20.886;2023-03-01T13:11:11;26.88;;;10.55;;
39860;SDS011;25529;49.346;20.886;2023-03-01T13:13:41;25.02;;;9.00;;
39860;SDS011;25529;49.346;20.886;2023-03-01T13:19:06;28.10;;;10.10;;
39860;SDS011;25529;49.346;20.886;2023-03-01T13:21:32;26.05;;;10.43;;
39860;SDS011;25529;49.346;20.886;2023-03-01T13:23:57;26.77;;;10.38;;
39860;SDS011;25529;49.346;20.886;2023-03-01T13:26:26;27.17;;;10.60;;
39860;SDS011;25529;49.346;20.886;2023-03-01T13:28:58;27.05;;;10.50;;
39860;SDS011;25529;49.346;20.886;2023-03-01T13:33:55;28.90;;;11.18;;
39860;SDS011;25529;49.346;20.886;2023-03-01T13:39:00;27.35;;;10.05;;
39860;SDS011;25529;49.346;20.886;2023-03-01T13:44:48;27.33;;;11.30;;
39860;SDS011;25529;49.346;20.886;2023-03-01T13:46:58;27.67;;;11.38;;
39860;SDS011;25529;49.346;20.886;2023-03-01T13:49:26;30.67;;;12.05;;
39860;SDS011;25529;49.346;20.886;2023-03-01T13:51:53;27.25;;;10.63;;
39860;SDS011;25529;49.346;20.886;2023-03-01T13:54:26;27.70;;;10.38;;
39860;SDS011;25529;49.346;20.886;2023-03-01T13:57:12;25.90;;;10.02;;
39860;SDS011;25529;49.346;20.886;2023-03-01T13:59:49;25.67;;;9.52;;
39860;SDS011;25529;49.346;20.886;2023-03-01T14:02:15;23.15;;;8.98;;
39860;SDS011;25529;49.346;20.886;2023-03-01T14:04:40;24.20;;;9.10;;
39860;SDS011;25529;49.346;20.886;2023-03-01T14:07:17;23.33;;;8.85;;
39860;SDS011;25529;49.346;20.886;2023-03-01T14:09:44;23.45;;;7.93;;
39860;SDS011;25529;49.346;20.886;2023-03-01T14:20:02;21.67;;;7.57;;
39860;SDS011;25529;49.346;20.886;2023-03-01T14:22:35;21.40;;;7.60;;
39860;SDS011;25529;49.346;20.886;2023-03-01T14:27:45;24.27;;;8.68;;
39860;SDS011;25529;49.346;20.886;2023-03-01T14:30:19;25.20;;;9.10;;
39860;SDS011;25529;49.346;20.886;2023-03-01T14:32:58;27.30;;;10.77;;
39860;SDS011;25529;49.346;20.886;2023-03-01T14:35:27;26.52;;;9.88;;
39860;SDS011;25529;49.346;20.886;2023-03-01T14:37:59;26.88;;;9.63;;
39860;SDS011;25529;49.346;20.886;2023-03-01T14:46:37;25.17;;;10.73;;
39860;SDS011;25529;49.346;20.886;2023-03-01T14:49:07;27.55;;;11.10;;
39860;SDS011;25529;49.346;20.886;2023-03-01T14:51:46;32.90;;;14.98;;
39860;SDS011;25529;49.346;20.886;2023-03-01T14:54:21;29.85;;;12.80;;
39860;SDS011;25529;49.346;20.886;2023-03-01T14:56:49;27.83;;;11.68;;
39860;SDS011;25529;49.346;20.886;2023-03-01T14:59:22;27.50;;;11.63;;
39860;SDS011;25529;49.346;20.886;2023-03-01T15:01:55;28.85;;;12.35;;
39860;SDS011;25529;49.346;20.886;2023-03-01T15:04:28;29.38;;;11.95;;
39860;SDS011;25529;49.346;20.886;2023-03-01T15:09:32;30.40;;;12.30;;
39860;SDS011;25529;49.346;20.886;2023-03-01T15:14:42;29.58;;;11.93;;
39860;SDS011;25529;49.346;20.886;2023-03-01T15:17:22;30.40;;;13.25;;
39860;SDS011;25529;49.346;20.886;2023-03-01T15:19:54;32.28;;;12.75;;
39860;SDS011;25529;49.346;20.886;2023-03-01T15:22:26;31.85;;;12.60;;
39860;SDS011;25529;49.346;20.886;2023-03-01T15:24:58;31.13;;;13.10;;
39860;SDS011;25529;49.346;20.886;2023-03-01T15:27:26;30.17;;;13.40;;
39860;SDS011;25529;49.346;20.886;2023-03-01T15:29:58;38.20;;;14.18;;
39860;SDS011;25529;49.346;20.886;2023-03-01T15:32:35;34.75;;;14.13;;
39860;SDS011;25529;49.346;20.886;2023-03-01T15:37:48;38.00;;;20.92;;
39860;SDS011;25529;49.346;20.886;2023-03-01T15:42:48;32.83;;;14.23;;
39860;SDS011;25529;49.346;20.886;2023-03-01T15:47:46;33.40;;;13.27;;
39860;SDS011;25529;49.346;20.886;2023-03-01T15:50:21;32.47;;;13.75;;
39860;SDS011;25529;49.346;20.886;2023-03-01T15:52:49;31.27;;;14.05;;
39860;SDS011;25529;49.346;20.886;2023-03-01T15:55:19;32.92;;;14.45;;
39860;SDS011;25529;49.346;20.886;2023-03-01T15:57:48;34.15;;;14.63;;
39860;SDS011;25529;49.346;20.886;2023-03-01T16:00:21;35.15;;;14.90;;
39860;SDS011;25529;49.346;20.886;2023-03-01T16:02:47;38.38;;;15.75;;
39860;SDS011;25529;49.346;20.886;2023-03-01T16:05:15;37.58;;;15.70;;
39860;SDS011;25529;49.346;20.886;2023-03-01T16:07:43;34.55;;;15.82;;
39860;SDS011;25529;49.346;20.886;2023-03-01T16:10:09;35.60;;;16.00;;
39860;SDS011;25529;49.346;20.886;2023-03-01T16:12:36;37.17;;;16.70;;
39860;SDS011;25529;49.346;20.886;2023-03-01T16:15:03;47.25;;;19.50;;
39860;SDS011;25529;49.346;20.886;2023-03-01T16:17:29;40.50;;;17.42;;
39860;SDS011;25529;49.346;20.886;2023-03-01T16:19:55;36.70;;;15.93;;
39860;SDS011;25529;49.346;20.886;2023-03-01T16:22:20;41.70;;;18.85;;
39860;SDS011;25529;49.346;20.886;2023-03-01T16:24:50;43.17;;;20.42;;
39860;SDS011;25529;49.346;20.886;2023-03-01T16:27:18;39.17;;;17.73;;
39860;SDS011;25529;49.346;20.886;2023-03-01T16:29:45;41.25;;;17.83;;
39860;SDS011;25529;49.346;20.886;2023-03-01T16:32:10;38.75;;;17.67;;
39860;SDS011;25529;49.346;20.886;2023-03-01T16:34:36;40.53;;;17.73;;
39860;SDS011;25529;49.346;20.886;2023-03-01T16:37:01;41.92;;;19.00;;
39860;SDS011;25529;49.346;20.886;2023-03-01T16:39:28;45.30;;;19.83;;